sensor_id;sensor_type;location;lat;lon;timestamp;pressure;altitude;pressure_sealevel;temperature;humidity
38038;BME280;23843;51.320;12.340;2023-04-07T00:01:52;100590.84;;;4.46;54.71
38038;BME280;23843;51.320;12.340;2023-04-07T00:04:18;100596.25;;;4.40;54.66
38038;BME280;23843;51.320;12.340;2023-04-07T00:06:43;100597.28;;;4.34;55.25
38038;BME280;23843;51.320;12.340;2023-04-07T00:09:09;100589.56;;;4.26;55.28
38038;BME280;23843;51.320;12.340;2023-04-07T00:11:35;100586.81;;;4.33;55.07
38038;BME280;23843;51.320;12.340;2023-04-07T00:14:03;100582.41;;;4.33;54.36
38038;BME280;23843;51.320;12.340;2023-04-07T00:16:28;100576.28;;;4.34;54.75
38038;BME280;23843;51.320;12.340;2023-04-07T00:18:55;100581.53;;;4.34;54.54
38038;BME280;23843;51.320;12.340;2023-04-07T00:21:20;100583.53;;;4.23;56.14
38038;BME280;23843;51.320;12.340;2023-04-07T00:23:46;100573.91;;;4.23;56.08
38038;BME280;23843;51.320;12.340;2023-04-07T00:26:11;100575.78;;;4.18;55.90
38038;BME280;23843;51.320;12.340;2023-04-07T00:28:37;100568.59;;;4.26;54.50
38038;BME280;23843;51.320;12.340;2023-04-07T00:31:02;100568.72;;;4.22;55.60
38038;BME280;23843;51.320;12.340;2023-04-07T00:33:28;100572.31;;;4.18;55.15
38038;BME280;23843;51.320;12.340;2023-04-07T00:35:55;100564.38;;;4.19;55.59
38038;BME280;23843;51.320;12.340;2023-04-07T00:38:20;100572.34;;;4.16;55.71
38038;BME280;23843;51.320;12.340;2023-04-07T00:40:45;100573.16;;;4.18;55.74
38038;BME280;23843;51.320;12.340;2023-04-07T00:43:11;100565.38;;;4.15;55.33
38038;BME280;23843;51.320;12.340;2023-04-07T00:45:36;100562.69;;;4.17;53.98
38038;BME280;23843;51.320;12.340;2023-04-07T00:48:03;100554.91;;;4.15;55.19
38038;BME280;23843;51.320;12.340;2023-04-07T00:50:28;100559.13;;;4.19;54.88
38038;BME280;23843;51.320;12.340;2023-04-07T00:52:55;100558.22;;;4.22;54.91
38038;BME280;23843;51.320;12.340;2023-04-07T00:55:21;100561.94;;;4.13;56.00
38038;BME280;23843;51.320;12.340;2023-04-07T00:57:46;100560.22;;;4.12;55.27
38038;BME280;23843;51.320;12.340;2023-04-07T01:00:12;100555.75;;;4.16;54.92
38038;BME280;23843;51.320;12.340;2023-04-07T01:02:41;100562.00;;;4.10;55.55
38038;BME280;23843;51.320;12.340;2023-04-07T01:05:12;100560.22;;;4.12;56.01
38038;BME280;23843;51.320;12.340;2023-04-07T01:07:46;100561.09;;;4.11;55.77
38038;BME280;23843;51.320;12.340;2023-04-07T01:10:21;100557.72;;;4.06;55.95
38038;BME280;23843;51.320;12.340;2023-04-07T01:12:52;100543.78;;;4.04;57.32
38038;BME280;23843;51.320;12.340;2023-04-07T01:15:20;100547.50;;;3.95;57.83
38038;BME280;23843;51.320;12.340;2023-04-07T01:17:50;100553.63;;;3.96;57.04
38038;BME280;23843;51.320;12.340;2023-04-07T01:20:20;100548.38;;;3.96;57.13
38038;BME280;23843;51.320;12.340;2023-04-07T01:22:52;100547.50;;;3.95;58.10
38038;BME280;23843;51.320;12.340;2023-04-07T01:25:48;100541.38;;;3.95;56.81
38038;BME280;23843;51.320;12.340;2023-04-07T01:28:35;100548.44;;;3.93;57.64
38038;BME280;23843;51.320;12.340;2023-04-07T01:31:07;100545.03;;;3.89;57.63
38038;BME280;23843;51.320;12.340;2023-04-07T01:33:33;100546.91;;;3.82;58.47
38038;BME280;23843;51.320;12.340;2023-04-07T01:36:01;100539.97;;;3.81;58.98
38038;BME280;23843;51.320;12.340;2023-04-07T01:38:27;100534.81;;;3.78;58.30
38038;BME280;23843;51.320;12.340;2023-04-07T01:40:55;100533.97;;;3.76;56.17
38038;BME280;23843;51.320;12.340;2023-04-07T01:43:22;100531.44;;;3.73;57.99
38038;BME280;23843;51.320;12.340;2023-04-07T01:45:49;100528.03;;;3.68;57.91
38038;BME280;23843;51.320;12.340;2023-04-07T01:48:17;100528.97;;;3.65;57.25
38038;BME280;23843;51.320;12.340;2023-04-07T01:50:43;100524.66;;;3.63;57.31
38038;BME280;23843;51.320;12.340;2023-04-07T01:53:10;100535.13;;;3.63;57.23
38038;BME280;23843;51.320;12.340;2023-04-07T01:55:36;100536.88;;;3.64;58.16
38038;BME280;23843;51.320;12.340;2023-04-07T01:58:07;100530.69;;;3.67;57.46
38038;BME280;23843;51.320;12.340;2023-04-07T02:00:33;100536.88;;;3.64;56.91
38038;BME280;23843;51.320;12.340;2023-04-07T02:03:02;100532.63;;;3.58;58.51
38038;BME280;23843;51.320;12.340;2023-04-07T02:05:31;100537.91;;;3.57;58.45
38038;BME280;23843;51.320;12.340;2023-04-07T02:08:01;100535.38;;;3.54;57.77
38038;BME280;23843;51.320;12.340;2023-04-07T02:10:28;100526.69;;;3.52;57.96
38038;BME280;23843;51.320;12.340;2023-04-07T02:12:55;100531.16;;;3.47;58.53
38038;BME280;23843;51.320;12.340;2023-04-07T02:15:26;100532.09;;;3.42;60.42
38038;BME280;23843;51.320;12.340;2023-04-07T02:17:53;100523.34;;;3.43;57.97
38038;BME280;23843;51.320;12.340;2023-04-07T02:20:21;100521.63;;;3.42;59.52
38038;BME280;23843;51.320;12.340;2023-04-07T02:22:49;100522.59;;;3.38;59.71
38038;BME280;23843;51.320;12.340;2023-04-07T02:25:22;100525.28;;;3.35;60.60
38038;BME280;23843;51.320;12.340;2023-04-07T02:27:48;100522.75;;;3.31;62.37
38038;BME280;23843;51.320;12.340;2023-04-07T02:30:14;100511.44;;;3.30;60.47
38038;BME280;23843;51.320;12.340;2023-04-07T02:32:39;100520.22;;;3.28;62.44
38038;BME280;23843;51.320;12.340;2023-04-07T02:35:05;100523.78;;;3.24;64.14
38038;BME280;23843;51.320;12.340;2023-04-07T02:37:31;100520.31;;;3.23;61.79
38038;BME280;23843;51.320;12.340;2023-04-07T02:40:01;100524.72;;;3.21;63.93
38038;BME280;23843;51.320;12.340;2023-04-07T02:42:26;100523.88;;;3.19;64.50
38038;BME280;23843;51.320;12.340;2023-04-07T02:44:52;100519.63;;;3.15;65.72
38038;BME280;23843;51.320;12.340;2023-04-07T02:47:17;100524.03;;;3.13;65.89
38038;BME280;23843;51.320;12.340;2023-04-07T02:49:42;100521.34;;;3.14;63.18
38038;BME280;23843;51.320;12.340;2023-04-07T02:52:08;100525.72;;;3.14;64.89
38038;BME280;23843;51.320;12.340;2023-04-07T02:54:33;100524.13;;;3.08;65.39
38038;BME280;23843;51.320;12.340;2023-04-07T02:57:00;100522.34;;;3.09;64.44
38038;BME280;23843;51.320;12.340;2023-04-07T02:59:26;100517.03;;;3.12;64.85
38038;BME280;23843;51.320;12.340;2023-04-07T03:01:51;100519.63;;;3.15;65.03
38038;BME280;23843;51.320;12.340;2023-04-07T03:04:17;100514.41;;;3.13;65.93
38038;BME280;23843;51.320;12.340;2023-04-07T03:06:42;100519.63;;;3.13;65.35
38038;BME280;23843;51.320;12.340;2023-04-07T03:09:08;100511.69;;;3.18;64.06
38038;BME280;23843;51.320;12.340;2023-04-07T03:11:33;100517.84;;;3.15;65.59
38038;BME280;23843;51.320;12.340;2023-04-07T03:14:00;100518.59;;;3.22;63.34
38038;BME280;23843;51.320;12.340;2023-04-07T03:16:25;100516.75;;;3.27;63.81
38038;BME280;23843;51.320;12.340;2023-04-07T03:18:51;100516.66;;;3.30;63.09
38038;BME280;23843;51.320;12.340;2023-04-07T03:21:16;100512.22;;;3.34;62.08
38038;BME280;23843;51.320;12.340;2023-04-07T03:23:42;100517.44;;;3.34;60.49
38038;BME280;23843;51.320;12.340;2023-04-07T03:26:07;100513.94;;;3.35;60.92
38038;BME280;23843;51.320;12.340;2023-04-07T03:28:33;100509.66;;;3.32;61.61
38038;BME280;23843;51.320;12.340;2023-04-07T03:31:03;100516.59;;;3.33;61.58
38038;BME280;23843;51.320;12.340;2023-04-07T03:33:28;100507.91;;;3.31;61.83
38038;BME280;23843;51.320;12.340;2023-04-07T03:35:54;100512.28;;;3.31;60.45
38038;BME280;23843;51.320;12.340;2023-04-07T03:38:19;100514.97;;;3.29;61.96
38038;BME280;23843;51.320;12.340;2023-04-07T03:40:45;100507.19;;;3.25;60.50
38038;BME280;23843;51.320;12.340;2023-04-07T03:43:10;100515.97;;;3.22;60.11
38038;BME280;23843;51.320;12.340;2023-04-07T03:45:36;100504.69;;;3.20;59.77
38038;BME280;23843;51.320;12.340;2023-04-07T03:48:03;100509.06;;;3.18;61.41
38038;BME280;23843;51.320;12.340;2023-04-07T03:50:29;100509.16;;;3.13;61.01
38038;BME280;23843;51.320;12.340;2023-04-07T03:52:54;100509.19;;;3.12;61.42
38038;BME280;23843;51.320;12.340;2023-04-07T03:55:20;100508.41;;;3.08;62.05
38038;BME280;23843;51.320;12.340;2023-04-07T03:57:45;100510.22;;;3.05;60.54
38038;BME280;23843;51.320;12.340;2023-04-07T04:00:12;100512.06;;;2.99;60.84
38038;BME280;23843;51.320;12.340;2023-04-07T04:02:38;100510.44;;;2.95;62.45
38038;BME280;23843;51.320;12.340;2023-04-07T04:05:05;100507.00;;;2.92;62.17
38038;BME280;23843;51.320;12.340;2023-04-07T04:07:30;100515.75;;;2.89;62.07
38038;BME280;23843;51.320;12.340;2023-04-07T04:09:56;100514.06;;;2.87;63.19
38038;BME280;23843;51.320;12.340;2023-04-07T04:12:21;100515.84;;;2.86;65.61
38038;BME280;23843;51.320;12.340;2023-04-07T04:14:49;100514.06;;;2.87;65.12
38038;BME280;23843;51.320;12.340;2023-04-07T04:17:14;100518.56;;;2.80;67.50
38038;BME280;23843;51.320;12.340;2023-04-07T04:19:40;100519.44;;;2.81;66.01
38038;BME280;23843;51.320;12.340;2023-04-07T04:22:07;100513.41;;;2.75;66.04
38038;BME280;23843;51.320;12.340;2023-04-07T04:24:32;100517.84;;;2.72;65.53
38038;BME280;23843;51.320;12.340;2023-04-07T04:26:58;100513.66;;;2.63;69.18
38038;BME280;23843;51.320;12.340;2023-04-07T04:29:23;100514.53;;;2.64;68.32
38038;BME280;23843;51.320;12.340;2023-04-07T04:31:49;100514.56;;;2.62;66.46
38038;BME280;23843;51.320;12.340;2023-04-07T04:34:14;100514.56;;;2.61;66.36
38038;BME280;23843;51.320;12.340;2023-04-07T04:36:40;100514.63;;;2.57;67.71
38038;BME280;23843;51.320;12.340;2023-04-07T04:39:06;100518.16;;;2.56;68.32
38038;BME280;23843;51.320;12.340;2023-04-07T04:41:32;100519.84;;;2.59;66.75
38038;BME280;23843;51.320;12.340;2023-04-07T04:43:58;100521.59;;;2.59;67.90
38038;BME280;23843;51.320;12.340;2023-04-07T04:46:24;100518.06;;;2.61;65.00
38038;BME280;23843;51.320;12.340;2023-04-07T04:48:49;100517.16;;;2.64;65.75
38038;BME280;23843;51.320;12.340;2023-04-07T04:51:15;100517.06;;;2.68;65.32
38038;BME280;23843;51.320;12.340;2023-04-07T04:53:40;100519.56;;;2.73;65.38
38038;BME280;23843;51.320;12.340;2023-04-07T04:56:07;100525.69;;;2.73;66.35
38038;BME280;23843;51.320;12.340;2023-04-07T04:58:33;100520.47;;;2.73;66.99
38038;BME280;23843;51.320;12.340;2023-04-07T05:00:59;100525.63;;;2.75;69.32
38038;BME280;23843;51.320;12.340;2023-04-07T05:03:25;100529.06;;;2.78;67.71
38038;BME280;23843;51.320;12.340;2023-04-07T05:05:50;100526.47;;;2.78;71.15
38038;BME280;23843;51.320;12.340;2023-04-07T05:08:16;100521.16;;;2.80;68.86
38038;BME280;23843;51.320;12.340;2023-04-07T05:10:41;100524.59;;;2.84;70.17
38038;BME280;23843;51.320;12.340;2023-04-07T05:13:08;100520.06;;;2.92;70.13
38038;BME280;23843;51.320;12.340;2023-04-07T05:15:34;100526.03;;;3.00;71.17
38038;BME280;23843;51.320;12.340;2023-04-07T05:17:59;100524.13;;;3.08;70.77
38038;BME280;23843;51.320;12.340;2023-04-07T05:20:25;100526.50;;;3.19;68.62
38038;BME280;23843;51.320;12.340;2023-04-07T05:22:50;100524.44;;;3.33;69.43
38038;BME280;23843;51.320;12.340;2023-04-07T05:25:16;100525.88;;;3.48;67.22
38038;BME280;23843;51.320;12.340;2023-04-07T05:27:41;100526.41;;;3.64;67.38
38038;BME280;23843;51.320;12.340;2023-04-07T05:30:09;100523.59;;;3.72;67.74
38038;BME280;23843;51.320;12.340;2023-04-07T05:32:35;100530.41;;;3.80;68.93
38038;BME280;23843;51.320;12.340;2023-04-07T05:35:01;100531.06;;;3.89;68.59
38038;BME280;23843;51.320;12.340;2023-04-07T05:37:26;100528.03;;;4.05;67.15
38038;BME280;23843;51.320;12.340;2023-04-07T05:39:52;100526.59;;;4.28;65.21
38038;BME280;23843;51.320;12.340;2023-04-07T05:42:17;100526.81;;;4.53;64.44
38038;BME280;23843;51.320;12.340;2023-04-07T05:44:43;100532.56;;;4.67;62.48
38038;BME280;23843;51.320;12.340;2023-04-07T05:47:10;100521.13;;;4.70;62.38
38038;BME280;23843;51.320;12.340;2023-04-07T05:49:35;100527.16;;;4.74;62.45
38038;BME280;23843;51.320;12.340;2023-04-07T05:52:01;100526.97;;;4.80;62.42
38038;BME280;23843;51.320;12.340;2023-04-07T05:54:26;100525.69;;;4.94;64.04
38038;BME280;23843;51.320;12.340;2023-04-07T05:56:52;100530.28;;;5.18;65.47
38038;BME280;23843;51.320;12.340;2023-04-07T05:59:17;100531.13;;;5.48;63.49
38038;BME280;23843;51.320;12.340;2023-04-07T06:01:43;100528.19;;;5.87;60.36
38038;BME280;23843;51.320;12.340;2023-04-07T06:04:10;100538.31;;;6.77;57.92
38038;BME280;23843;51.320;12.340;2023-04-07T06:06:35;100532.31;;;7.90;52.49
38038;BME280;23843;51.320;12.340;2023-04-07T06:09:01;100528.97;;;9.11;51.12
38038;BME280;23843;51.320;12.340;2023-04-07T06:11:26;100526.56;;;10.17;46.51
38038;BME280;23843;51.320;12.340;2023-04-07T06:13:51;100528.25;;;11.38;42.88
38038;BME280;23843;51.320;12.340;2023-04-07T06:16:17;100526.81;;;11.64;39.95
38038;BME280;23843;51.320;12.340;2023-04-07T06:18:44;100519.38;;;12.92;39.50
38038;BME280;23843;51.320;12.340;2023-04-07T06:21:10;100526.94;;;13.84;36.43
38038;BME280;23843;51.320;12.340;2023-04-07T06:23:36;100517.69;;;14.69;38.08
38038;BME280;23843;51.320;12.340;2023-04-07T06:26:02;100525.81;;;15.81;37.99
38038;BME280;23843;51.320;12.340;2023-04-07T06:28:27;100520.06;;;16.58;33.53
38038;BME280;23843;51.320;12.340;2023-04-07T06:30:53;100523.53;;;16.12;30.34
38038;BME280;23843;51.320;12.340;2023-04-07T06:33:18;100520.72;;;16.02;28.76
38038;BME280;23843;51.320;12.340;2023-04-07T06:35:44;100518.03;;;16.26;32.47
38038;BME280;23843;51.320;12.340;2023-04-07T06:38:10;100512.09;;;16.45;30.15
38038;BME280;23843;51.320;12.340;2023-04-07T06:40:36;100514.78;;;16.10;31.14
38038;BME280;23843;51.320;12.340;2023-04-07T06:43:02;100509.69;;;16.18;28.38
38038;BME280;23843;51.320;12.340;2023-04-07T06:45:27;100511.72;;;16.03;29.80
38038;BME280;23843;51.320;12.340;2023-04-07T06:47:53;100519.38;;;15.34;29.31
38038;BME280;23843;51.320;12.340;2023-04-07T06:50:18;100513.88;;;16.22;29.82
38038;BME280;23843;51.320;12.340;2023-04-07T06:52:44;100519.22;;;16.22;27.92
38038;BME280;23843;51.320;12.340;2023-04-07T06:55:11;100523.59;;;15.75;28.19
38038;BME280;23843;51.320;12.340;2023-04-07T06:57:36;100520.91;;;16.23;30.65
38038;BME280;23843;51.320;12.340;2023-04-07T07:00:02;100519.19;;;17.16;29.87
38038;BME280;23843;51.320;12.340;2023-04-07T07:02:27;100511.66;;;17.32;28.84
38038;BME280;23843;51.320;12.340;2023-04-07T07:04:53;100514.72;;;18.05;30.61
38038;BME280;23843;51.320;12.340;2023-04-07T07:07:18;100516.09;;;19.25;28.62
38038;BME280;23843;51.320;12.340;2023-04-07T07:09:44;100507.25;;;20.23;27.19
38038;BME280;23843;51.320;12.340;2023-04-07T07:12:10;100510.50;;;21.23;25.64
38038;BME280;23843;51.320;12.340;2023-04-07T07:14:36;100507.13;;;22.21;27.15
38038;BME280;23843;51.320;12.340;2023-04-07T07:17:01;100508.22;;;22.19;28.04
38038;BME280;23843;51.320;12.340;2023-04-07T07:19:27;100514.25;;;22.13;21.88
38038;BME280;23843;51.320;12.340;2023-04-07T07:21:52;100515.78;;;21.52;26.40
38038;BME280;23843;51.320;12.340;2023-04-07T07:24:18;100516.63;;;21.15;27.84
38038;BME280;23843;51.320;12.340;2023-04-07T07:26:43;100514.88;;;20.86;26.39
38038;BME280;23843;51.320;12.340;2023-04-07T07:29:10;100520.59;;;20.25;27.71
38038;BME280;23843;51.320;12.340;2023-04-07T07:31:36;100524.63;;;19.71;26.54
38038;BME280;23843;51.320;12.340;2023-04-07T07:34:01;100527.94;;;19.53;26.53
38038;BME280;23843;51.320;12.340;2023-04-07T07:36:26;100530.91;;;19.19;27.01
38038;BME280;23843;51.320;12.340;2023-04-07T07:38:52;100528.13;;;19.31;27.56
38038;BME280;23843;51.320;12.340;2023-04-07T07:41:17;100531.63;;;20.02;28.68
38038;BME280;23843;51.320;12.340;2023-04-07T07:43:43;100533.31;;;20.42;28.21
38038;BME280;23843;51.320;12.340;2023-04-07T07:46:11;100527.38;;;20.78;25.36
38038;BME280;23843;51.320;12.340;2023-04-07T07:48:37;100528.97;;;21.08;27.14
38038;BME280;23843;51.320;12.340;2023-04-07T07:51:05;100532.81;;;21.98;21.44
38038;BME280;23843;51.320;12.340;2023-04-07T07:53:30;100531.34;;;22.75;24.84
38038;BME280;23843;51.320;12.340;2023-04-07T07:55:56;100529.16;;;23.65;24.07
38038;BME280;23843;51.320;12.340;2023-04-07T07:58:21;100527.28;;;24.17;20.48
38038;BME280;23843;51.320;12.340;2023-04-07T08:00:46;100529.63;;;24.11;22.70
38038;BME280;23843;51.320;12.340;2023-04-07T08:03:13;100526.75;;;25.19;17.53
38038;BME280;23843;51.320;12.340;2023-04-07T08:05:39;100522.03;;;26.15;22.51
38038;BME280;23843;51.320;12.340;2023-04-07T08:08:04;100525.97;;;25.81;16.70
38038;BME280;23843;51.320;12.340;2023-04-07T08:10:30;100540.97;;;24.07;18.07
38038;BME280;23843;51.320;12.340;2023-04-07T08:12:55;100539.59;;;22.74;18.84
38038;BME280;23843;51.320;12.340;2023-04-07T08:15:21;100547.59;;;21.94;21.11
38038;BME280;23843;51.320;12.340;2023-04-07T08:17:46;100543.09;;;21.29;19.81
38038;BME280;23843;51.320;12.340;2023-04-07T08:20:13;100544.91;;;20.91;22.79
38038;BME280;23843;51.320;12.340;2023-04-07T08:22:39;100550.03;;;20.75;21.79
38038;BME280;23843;51.320;12.340;2023-04-07T08:25:04;100549.47;;;20.71;21.65
38038;BME280;23843;51.320;12.340;2023-04-07T08:27:30;100554.28;;;20.78;20.68
38038;BME280;23843;51.320;12.340;2023-04-07T08:30:00;100558.25;;;20.25;20.51
38038;BME280;23843;51.320;12.340;2023-04-07T08:32:33;100559.34;;;19.62;21.90
38038;BME280;23843;51.320;12.340;2023-04-07T08:34:59;100566.84;;;19.59;23.20
38038;BME280;23843;51.320;12.340;2023-04-07T08:37:25;100566.19;;;18.52;22.84
38038;BME280;23843;51.320;12.340;2023-04-07T08:39:51;100580.47;;;18.09;22.21
38038;BME280;23843;51.320;12.340;2023-04-07T08:42:17;100570.75;;;17.96;22.94
38038;BME280;23843;51.320;12.340;2023-04-07T08:44:44;100566.78;;;17.68;23.01
38038;BME280;23843;51.320;12.340;2023-04-07T08:47:12;100574.28;;;16.60;23.98
38038;BME280;23843;51.320;12.340;2023-04-07T08:49:40;100574.38;;;16.23;24.12
38038;BME280;23843;51.320;12.340;2023-04-07T08:52:07;100573.22;;;15.91;24.52
38038;BME280;23843;51.320;12.340;2023-04-07T08:54:37;100573.41;;;15.25;24.63
38038;BME280;23843;51.320;12.340;2023-04-07T08:57:02;100579.38;;;15.16;25.04
38038;BME280;23843;51.320;12.340;2023-04-07T08:59:30;100569.47;;;15.05;25.15
38038;BME280;23843;51.320;12.340;2023-04-07T09:01:56;100575.97;;;15.39;25.92
38038;BME280;23843;51.320;12.340;2023-04-07T09:04:21;100573.19;;;15.15;25.56
38038;BME280;23843;51.320;12.340;2023-04-07T09:06:48;100577.66;;;15.53;25.74
38038;BME280;23843;51.320;12.340;2023-04-07T09:09:13;100582.41;;;15.24;26.13
38038;BME280;23843;51.320;12.340;2023-04-07T09:11:40;100571.72;;;15.24;26.00
38038;BME280;23843;51.320;12.340;2023-04-07T09:14:05;100584.72;;;15.16;26.08
38038;BME280;23843;51.320;12.340;2023-04-07T09:16:32;100583.66;;;15.18;26.04
38038;BME280;23843;51.320;12.340;2023-04-07T09:18:57;100570.97;;;15.22;26.00
38038;BME280;23843;51.320;12.340;2023-04-07T09:21:23;100577.81;;;15.89;26.73
38038;BME280;23843;51.320;12.340;2023-04-07T09:23:49;100572.03;;;16.43;25.34
38038;BME280;23843;51.320;12.340;2023-04-07T09:26:19;100572.94;;;17.01;25.25
38038;BME280;23843;51.320;12.340;2023-04-07T09:28:47;100576.88;;;17.42;24.73
38038;BME280;23843;51.320;12.340;2023-04-07T09:31:13;100569.47;;;17.12;24.55
38038;BME280;23843;51.320;12.340;2023-04-07T09:33:38;100583.09;;;17.20;24.56
38038;BME280;23843;51.320;12.340;2023-04-07T09:36:05;100571.13;;;16.90;25.62
38038;BME280;23843;51.320;12.340;2023-04-07T09:38:32;100564.31;;;17.76;24.96
38038;BME280;23843;51.320;12.340;2023-04-07T09:41:04;100568.44;;;18.35;24.08
38038;BME280;23843;51.320;12.340;2023-04-07T09:43:30;100565.19;;;18.00;24.06
38038;BME280;23843;51.320;12.340;2023-04-07T09:46:10;100558.47;;;18.91;24.03
38038;BME280;23843;51.320;12.340;2023-04-07T09:48:36;100548.66;;;19.72;23.60
38038;BME280;23843;51.320;12.340;2023-04-07T09:51:04;100555.41;;;20.07;21.41
38038;BME280;23843;51.320;12.340;2023-04-07T09:53:40;100538.50;;;19.45;22.22
38038;BME280;23843;51.320;12.340;2023-04-07T09:56:06;100545.81;;;19.33;23.95
38038;BME280;23843;51.320;12.340;2023-04-07T09:58:33;100535.44;;;19.59;24.39
38038;BME280;23843;51.320;12.340;2023-04-07T10:00:58;100535.56;;;19.17;22.92
38038;BME280;23843;51.320;12.340;2023-04-07T10:03:26;100533.97;;;18.63;23.32
38038;BME280;23843;51.320;12.340;2023-04-07T10:05:52;100539.22;;;18.86;23.40
38038;BME280;23843;51.320;12.340;2023-04-07T10:08:17;100528.25;;;18.77;23.06
38038;BME280;23843;51.320;12.340;2023-04-07T10:10:43;100539.69;;;18.37;22.80
38038;BME280;23843;51.320;12.340;2023-04-07T10:13:09;100531.16;;;18.32;23.85
38038;BME280;23843;51.320;12.340;2023-04-07T10:15:35;100535.91;;;18.61;24.21
38038;BME280;23843;51.320;12.340;2023-04-07T10:18:06;100534.16;;;18.71;24.19
38038;BME280;23843;51.320;12.340;2023-04-07T10:20:34;100534.75;;;18.96;23.78
38038;BME280;23843;51.320;12.340;2023-04-07T10:23:08;100534.88;;;18.94;23.57
38038;BME280;23843;51.320;12.340;2023-04-07T10:25:38;100538.91;;;18.47;22.10
38038;BME280;23843;51.320;12.340;2023-04-07T10:28:06;100538.06;;;16.67;23.80
38038;BME280;23843;51.320;12.340;2023-04-07T10:30:33;100538.50;;;16.50;24.07
38038;BME280;23843;51.320;12.340;2023-04-07T10:32:59;100529.41;;;16.29;24.53
38038;BME280;23843;51.320;12.340;2023-04-07T10:35:24;100534.13;;;16.49;24.52
38038;BME280;23843;51.320;12.340;2023-04-07T10:38:13;100530.00;;;16.92;24.68
38038;BME280;23843;51.320;12.340;2023-04-07T10:40:39;100527.72;;;17.32;24.02
38038;BME280;23843;51.320;12.340;2023-04-07T10:43:06;100539.41;;;17.20;23.61
38038;BME280;23843;51.320;12.340;2023-04-07T10:45:51;100527.91;;;16.84;23.68
38038;BME280;23843;51.320;12.340;2023-04-07T10:48:18;100526.00;;;17.08;24.63
38038;BME280;23843;51.320;12.340;2023-04-07T10:50:44;100532.22;;;17.43;24.65
38038;BME280;23843;51.320;12.340;2023-04-07T10:53:11;100538.19;;;17.35;24.31
38038;BME280;23843;51.320;12.340;2023-04-07T10:55:38;100528.38;;;16.78;24.88
38038;BME280;23843;51.320;12.340;2023-04-07T10:58:18;100530.56;;;16.37;25.42
38038;BME280;23843;51.320;12.340;2023-04-07T11:01:17;100534.09;;;15.90;26.65
38038;BME280;23843;51.320;12.340;2023-04-07T11:03:55;100543.84;;;15.91;26.85
38038;BME280;23843;51.320;12.340;2023-04-07T11:06:22;100535.75;;;16.27;26.84
38038;BME280;23843;51.320;12.340;2023-04-07T11:08:47;100534.28;;;16.59;26.20
38038;BME280;23843;51.320;12.340;2023-04-07T11:11:18;100531.59;;;16.83;26.16
38038;BME280;23843;51.320;12.340;2023-04-07T11:13:44;100526.56;;;16.43;25.61
38038;BME280;23843;51.320;12.340;2023-04-07T11:16:11;100532.84;;;16.31;25.72
38038;BME280;23843;51.320;12.340;2023-04-07T11:18:37;100530.81;;;16.45;26.22
38038;BME280;23843;51.320;12.340;2023-04-07T11:21:03;100529.94;;;16.69;26.19
38038;BME280;23843;51.320;12.340;2023-04-07T11:23:29;100531.56;;;16.94;26.39
38038;BME280;23843;51.320;12.340;2023-04-07T11:25:59;100532.69;;;17.14;25.97
38038;BME280;23843;51.320;12.340;2023-04-07T11:28:26;100532.31;;;17.19;25.82
38038;BME280;23843;51.320;12.340;2023-04-07T11:30:55;100520.66;;;17.08;25.89
38038;BME280;23843;51.320;12.340;2023-04-07T11:33:22;100528.22;;;17.15;25.69
38038;BME280;23843;51.320;12.340;2023-04-07T11:35:50;100525.50;;;16.81;25.47
38038;BME280;23843;51.320;12.340;2023-04-07T11:38:17;100529.38;;;16.41;25.44
38038;BME280;23843;51.320;12.340;2023-04-07T11:40:42;100536.75;;;15.90;26.16
38038;BME280;23843;51.320;12.340;2023-04-07T11:43:15;100532.91;;;15.94;26.60
38038;BME280;23843;51.320;12.340;2023-04-07T11:45:42;100534.75;;;16.17;26.34
38038;BME280;23843;51.320;12.340;2023-04-07T11:48:25;100527.66;;;16.16;26.53
38038;BME280;23843;51.320;12.340;2023-04-07T11:50:54;100538.63;;;15.76;26.51
38038;BME280;23843;51.320;12.340;2023-04-07T11:53:27;100533.91;;;15.30;27.10
38038;BME280;23843;51.320;12.340;2023-04-07T11:55:59;100542.25;;;15.13;27.32
38038;BME280;23843;51.320;12.340;2023-04-07T11:58:25;100528.34;;;15.33;27.23
38038;BME280;23843;51.320;12.340;2023-04-07T12:00:55;100531.72;;;15.61;27.45
38038;BME280;23843;51.320;12.340;2023-04-07T12:03:20;100536.16;;;15.86;26.84
38038;BME280;23843;51.320;12.340;2023-04-07T12:05:46;100538.31;;;16.05;27.04
38038;BME280;23843;51.320;12.340;2023-04-07T12:08:13;100538.16;;;16.19;26.56
38038;BME280;23843;51.320;12.340;2023-04-07T12:10:39;100541.28;;;16.13;26.46
38038;BME280;23843;51.320;12.340;2023-04-07T12:13:05;100537.34;;;16.06;26.46
38038;BME280;23843;51.320;12.340;2023-04-07T12:15:31;100528.81;;;16.01;25.73
38038;BME280;23843;51.320;12.340;2023-04-07T12:18:04;100523.19;;;15.56;25.60
38038;BME280;23843;51.320;12.340;2023-04-07T12:20:30;100527.69;;;15.43;25.94
38038;BME280;23843;51.320;12.340;2023-04-07T12:22:56;100533.47;;;15.36;26.02
38038;BME280;23843;51.320;12.340;2023-04-07T12:25:22;100535.19;;;15.37;26.44
38038;BME280;23843;51.320;12.340;2023-04-07T12:27:50;100535.53;;;15.20;26.84
38038;BME280;23843;51.320;12.340;2023-04-07T12:30:15;100532.84;;;14.94;26.74
38038;BME280;23843;51.320;12.340;2023-04-07T12:32:41;100529.25;;;14.95;27.04
38038;BME280;23843;51.320;12.340;2023-04-07T12:35:08;100529.25;;;14.95;27.24
38038;BME280;23843;51.320;12.340;2023-04-07T12:37:33;100525.50;;;14.85;27.39
38038;BME280;23843;51.320;12.340;2023-04-07T12:39:59;100528.50;;;14.81;27.37
38038;BME280;23843;51.320;12.340;2023-04-07T12:42:25;100533.91;;;14.53;27.38
38038;BME280;23843;51.320;12.340;2023-04-07T12:44:50;100535.31;;;14.32;27.54